sensor_id;sensor_type;location;lat;lon;timestamp;temperature;humidity
16846;DHT22;8539;53.188;8.696;2024-01-30T00:01:04;4.70;99.90
16846;DHT22;8539;53.188;8.696;2024-01-30T00:03:31;4.60;99.90
16846;DHT22;8539;53.188;8.696;2024-01-30T00:05:59;4.60;99.90
16846;DHT22;8539;53.188;8.696;2024-01-30T00:08:26;4.60;99.90
16846;DHT22;8539;53.188;8.696;2024-01-30T00:10:53;4.50;99.90
16846;DHT22;8539;53.188;8.696;2024-01-30T00:13:21;4.50;99.90
16846;DHT22;8539;53.188;8.696;2024-01-30T00:15:51;4.50;99.90
16846;DHT22;8539;53.188;8.696;2024-01-30T00:18:19;4.50;99.90
16846;DHT22;8539;53.188;8.696;2024-01-30T00:20:49;4.40;99.90
16846;DHT22;8539;53.188;8.696;2024-01-30T00:23:47;4.40;99.90
16846;DHT22;8539;53.188;8.696;2024-01-30T00:26:31;4.30;99.90
16846;DHT22;8539;53.188;8.696;2024-01-30T00:29:09;4.30;99.90
16846;DHT22;8539;53.188;8.696;2024-01-30T00:31:50;4.30;99.90
16846;DHT22;8539;53.188;8.696;2024-01-30T00:37:04;4.30;99.90
16846;DHT22;8539;53.188;8.696;2024-01-30T00:39:31;4.30;99.90
16846;DHT22;8539;53.188;8.696;2024-01-30T00:41:59;4.30;99.90
16846;DHT22;8539;53.188;8.696;2024-01-30T00:44:29;4.30;99.90
16846;DHT22;8539;53.188;8.696;2024-01-30T00:46:57;4.30;99.90
16846;DHT22;8539;53.188;8.696;2024-01-30T00:49:24;4.30;99.90
16846;DHT22;8539;53.188;8.696;2024-01-30T00:51:55;4.30;99.90
16846;DHT22;8539;53.188;8.696;2024-01-30T00:54:22;4.20;99.90
16846;DHT22;8539;53.188;8.696;2024-01-30T00:56:50;4.20;99.90
16846;DHT22;8539;53.188;8.696;2024-01-30T00:59:17;4.20;99.90
16846;DHT22;8539;53.188;8.696;2024-01-30T01:01:47;4.20;99.90
16846;DHT22;8539;53.188;8.696;2024-01-30T01:04:15;4.20;99.90
16846;DHT22;8539;53.188;8.696;2024-01-30T01:06:45;4.20;99.90
16846;DHT22;8539;53.188;8.696;2024-01-30T01:09:13;4.20;99.90
16846;DHT22;8539;53.188;8.696;2024-01-30T01:11:50;4.20;99.90
16846;DHT22;8539;53.188;8.696;2024-01-30T01:14:23;4.20;99.90
16846;DHT22;8539;53.188;8.696;2024-01-30T01:17:06;4.30;99.90
16846;DHT22;8539;53.188;8.696;2024-01-30T01:19:33;4.30;99.90
16846;DHT22;8539;53.188;8.696;2024-01-30T01:22:06;4.40;99.90
16846;DHT22;8539;53.188;8.696;2024-01-30T01:24:48;4.40;99.90
16846;DHT22;8539;53.188;8.696;2024-01-30T01:27:16;4.40;99.90
16846;DHT22;8539;53.188;8.696;2024-01-30T01:29:43;4.50;99.90
16846;DHT22;8539;53.188;8.696;2024-01-30T01:32:14;4.40;99.90
16846;DHT22;8539;53.188;8.696;2024-01-30T01:34:46;4.50;99.90
16846;DHT22;8539;53.188;8.696;2024-01-30T01:37:16;4.50;99.90
16846;DHT22;8539;53.188;8.696;2024-01-30T01:39:52;4.50;99.90
16846;DHT22;8539;53.188;8.696;2024-01-30T01:42:22;4.50;99.90
16846;DHT22;8539;53.188;8.696;2024-01-30T01:44:49;4.50;99.90
16846;DHT22;8539;53.188;8.696;2024-01-30T01:49:51;4.50;99.90
16846;DHT22;8539;53.188;8.696;2024-01-30T01:52:19;4.60;99.90
16846;DHT22;8539;53.188;8.696;2024-01-30T01:54:50;4.50;99.90
16846;DHT22;8539;53.188;8.696;2024-01-30T01:57:18;4.50;99.90
16846;DHT22;8539;53.188;8.696;2024-01-30T01:59:46;4.50;99.90
16846;DHT22;8539;53.188;8.696;2024-01-30T02:02:14;4.40;99.90
16846;DHT22;8539;53.188;8.696;2024-01-30T02:04:50;4.40;99.90
16846;DHT22;8539;53.188;8.696;2024-01-30T02:07:18;4.30;99.90
16846;DHT22;8539;53.188;8.696;2024-01-30T02:09:45;4.30;99.90
16846;DHT22;8539;53.188;8.696;2024-01-30T02:12:15;4.30;99.90
16846;DHT22;8539;53.188;8.696;2024-01-30T02:14:49;4.10;99.90
16846;DHT22;8539;53.188;8.696;2024-01-30T02:17:16;4.00;99.90
16846;DHT22;8539;53.188;8.696;2024-01-30T02:19:44;4.00;99.90
16846;DHT22;8539;53.188;8.696;2024-01-30T02:22:12;4.00;99.90
16846;DHT22;8539;53.188;8.696;2024-01-30T02:24:39;3.90;99.90
16846;DHT22;8539;53.188;8.696;2024-01-30T02:27:07;3.90;99.90
16846;DHT22;8539;53.188;8.696;2024-01-30T02:29:34;3.90;99.90
16846;DHT22;8539;53.188;8.696;2024-01-30T02:32:01;3.80;99.90
16846;DHT22;8539;53.188;8.696;2024-01-30T02:34:28;3.80;99.90
16846;DHT22;8539;53.188;8.696;2024-01-30T02:36:56;3.70;99.90
16846;DHT22;8539;53.188;8.696;2024-01-30T02:39:23;3.70;99.90
16846;DHT22;8539;53.188;8.696;2024-01-30T02:41:51;3.70;99.90
16846;DHT22;8539;53.188;8.696;2024-01-30T02:44:18;3.60;99.90
16846;DHT22;8539;53.188;8.696;2024-01-30T02:46:48;3.50;99.90
16846;DHT22;8539;53.188;8.696;2024-01-30T02:49:15;3.50;99.90
16846;DHT22;8539;53.188;8.696;2024-01-30T02:51:42;3.40;99.90
16846;DHT22;8539;53.188;8.696;2024-01-30T02:54:11;3.30;99.90
16846;DHT22;8539;53.188;8.696;2024-01-30T02:56:39;3.20;99.90
16846;DHT22;8539;53.188;8.696;2024-01-30T02:59:15;3.10;99.90
16846;DHT22;8539;53.188;8.696;2024-01-30T03:01:52;3.00;99.90
16846;DHT22;8539;53.188;8.696;2024-01-30T03:04:31;3.00;99.90
16846;DHT22;8539;53.188;8.696;2024-01-30T03:07:02;2.90;99.90
16846;DHT22;8539;53.188;8.696;2024-01-30T03:09:30;2.90;99.90
16846;DHT22;8539;53.188;8.696;2024-01-30T03:12:01;2.90;99.90
16846;DHT22;8539;53.188;8.696;2024-01-30T03:14:45;2.80;99.90
16846;DHT22;8539;53.188;8.696;2024-01-30T03:17:18;2.90;99.90
16846;DHT22;8539;53.188;8.696;2024-01-30T03:19:47;2.90;99.90
16846;DHT22;8539;53.188;8.696;2024-01-30T03:25:04;2.90;99.90
16846;DHT22;8539;53.188;8.696;2024-01-30T03:27:31;2.90;99.90
16846;DHT22;8539;53.188;8.696;2024-01-30T03:29:58;2.80;99.90
16846;DHT22;8539;53.188;8.696;2024-01-30T03:32:26;2.80;99.90
16846;DHT22;8539;53.188;8.696;2024-01-30T03:34:53;2.70;99.90
16846;DHT22;8539;53.188;8.696;2024-01-30T03:37:21;2.60;99.90
16846;DHT22;8539;53.188;8.696;2024-01-30T03:39:48;2.60;99.90
16846;DHT22;8539;53.188;8.696;2024-01-30T03:42:15;2.70;99.90
16846;DHT22;8539;53.188;8.696;2024-01-30T03:44:42;2.60;99.90
16846;DHT22;8539;53.188;8.696;2024-01-30T03:47:10;2.60;99.90
16846;DHT22;8539;53.188;8.696;2024-01-30T03:49:37;2.60;99.90
16846;DHT22;8539;53.188;8.696;2024-01-30T03:52:04;2.60;99.90
16846;DHT22;8539;53.188;8.696;2024-01-30T03:54:31;2.60;99.90
16846;DHT22;8539;53.188;8.696;2024-01-30T03:56:59;2.50;99.90
16846;DHT22;8539;53.188;8.696;2024-01-30T03:59:29;2.60;99.90
16846;DHT22;8539;53.188;8.696;2024-01-30T04:02:02;2.60;99.90
16846;DHT22;8539;53.188;8.696;2024-01-30T04:04:35;2.60;99.90
16846;DHT22;8539;53.188;8.696;2024-01-30T04:07:06;2.70;99.90
16846;DHT22;8539;53.188;8.696;2024-01-30T04:09:33;2.70;99.90
16846;DHT22;8539;53.188;8.696;2024-01-30T04:12:00;2.80;99.90
16846;DHT22;8539;53.188;8.696;2024-01-30T04:14:29;2.80;99.90
16846;DHT22;8539;53.188;8.696;2024-01-30T04:16:56;2.80;99.90
16846;DHT22;8539;53.188;8.696;2024-01-30T04:19:24;2.90;99.90
16846;DHT22;8539;53.188;8.696;2024-01-30T04:21:51;2.90;99.90
16846;DHT22;8539;53.188;8.696;2024-01-30T04:24:18;3.00;99.90
16846;DHT22;8539;53.188;8.696;2024-01-30T04:26:48;3.10;99.90
16846;DHT22;8539;53.188;8.696;2024-01-30T04:29:15;3.20;99.90
16846;DHT22;8539;53.188;8.696;2024-01-30T04:31:42;3.30;99.90
16846;DHT22;8539;53.188;8.696;2024-01-30T04:34:10;3.30;99.90
16846;DHT22;8539;53.188;8.696;2024-01-30T04:36:37;3.30;99.90
16846;DHT22;8539;53.188;8.696;2024-01-30T04:39:04;3.40;99.90
16846;DHT22;8539;53.188;8.696;2024-01-30T04:41:31;3.30;99.90
16846;DHT22;8539;53.188;8.696;2024-01-30T04:43:59;3.30;99.90
16846;DHT22;8539;53.188;8.696;2024-01-30T04:46:26;3.40;99.90
16846;DHT22;8539;53.188;8.696;2024-01-30T04:48:53;3.40;99.90
16846;DHT22;8539;53.188;8.696;2024-01-30T04:51:20;3.40;99.90
16846;DHT22;8539;53.188;8.696;2024-01-30T04:53:47;3.40;99.90
16846;DHT22;8539;53.188;8.696;2024-01-30T04:56:14;3.40;99.90
16846;DHT22;8539;53.188;8.696;2024-01-30T04:58:42;3.40;99.90
16846;DHT22;8539;53.188;8.696;2024-01-30T05:01:09;3.40;99.90
16846;DHT22;8539;53.188;8.696;2024-01-30T05:03:37;3.40;99.90
16846;DHT22;8539;53.188;8.696;2024-01-30T05:06:06;3.40;99.90
16846;DHT22;8539;53.188;8.696;2024-01-30T05:08:34;3.40;99.90
16846;DHT22;8539;53.188;8.696;2024-01-30T05:11:04;3.40;99.90
16846;DHT22;8539;53.188;8.696;2024-01-30T05:13:32;3.40;99.90
16846;DHT22;8539;53.188;8.696;2024-01-30T05:16:02;3.40;99.90
16846;DHT22;8539;53.188;8.696;2024-01-30T05:18:30;3.40;99.90
16846;DHT22;8539;53.188;8.696;2024-01-30T05:20:58;3.40;99.90
16846;DHT22;8539;53.188;8.696;2024-01-30T05:23:25;3.50;99.90
16846;DHT22;8539;53.188;8.696;2024-01-30T05:25:52;3.40;99.90
16846;DHT22;8539;53.188;8.696;2024-01-30T05:28:22;3.40;99.90
16846;DHT22;8539;53.188;8.696;2024-01-30T05:30:50;3.50;99.90
16846;DHT22;8539;53.188;8.696;2024-01-30T05:33:18;3.40;99.90
16846;DHT22;8539;53.188;8.696;2024-01-30T05:35:46;3.50;99.90
16846;DHT22;8539;53.188;8.696;2024-01-30T05:38:17;3.60;99.90
16846;DHT22;8539;53.188;8.696;2024-01-30T05:40:46;3.70;99.90
16846;DHT22;8539;53.188;8.696;2024-01-30T05:43:16;3.70;99.90
16846;DHT22;8539;53.188;8.696;2024-01-30T05:45:50;3.70;99.90
16846;DHT22;8539;53.188;8.696;2024-01-30T05:48:25;3.70;99.90
16846;DHT22;8539;53.188;8.696;2024-01-30T05:50:55;3.80;99.90
16846;DHT22;8539;53.188;8.696;2024-01-30T05:53:23;3.70;99.90
16846;DHT22;8539;53.188;8.696;2024-01-30T05:55:51;3.80;99.90
16846;DHT22;8539;53.188;8.696;2024-01-30T05:58:18;3.80;99.90
16846;DHT22;8539;53.188;8.696;2024-01-30T06:00:46;3.80;99.90
16846;DHT22;8539;53.188;8.696;2024-01-30T06:03:13;3.70;99.90
16846;DHT22;8539;53.188;8.696;2024-01-30T06:05:40;3.80;99.90
16846;DHT22;8539;53.188;8.696;2024-01-30T06:08:07;3.70;99.90
16846;DHT22;8539;53.188;8.696;2024-01-30T06:10:34;3.70;99.90
16846;DHT22;8539;53.188;8.696;2024-01-30T06:13:02;3.70;99.90
16846;DHT22;8539;53.188;8.696;2024-01-30T06:15:30;3.60;99.90
16846;DHT22;8539;53.188;8.696;2024-01-30T06:17:57;3.70;99.90
16846;DHT22;8539;53.188;8.696;2024-01-30T06:20:24;3.70;99.90
16846;DHT22;8539;53.188;8.696;2024-01-30T06:22:52;3.70;99.90
16846;DHT22;8539;53.188;8.696;2024-01-30T06:25:21;3.70;99.90
16846;DHT22;8539;53.188;8.696;2024-01-30T06:27:54;3.80;99.90
16846;DHT22;8539;53.188;8.696;2024-01-30T06:30:21;3.80;99.90
16846;DHT22;8539;53.188;8.696;2024-01-30T06:32:49;3.80;99.90
16846;DHT22;8539;53.188;8.696;2024-01-30T06:35:16;3.90;99.90
16846;DHT22;8539;53.188;8.696;2024-01-30T06:40:31;4.00;99.90
16846;DHT22;8539;53.188;8.696;2024-01-30T06:42:58;4.00;99.90
16846;DHT22;8539;53.188;8.696;2024-01-30T06:45:26;4.00;99.90
16846;DHT22;8539;53.188;8.696;2024-01-30T06:47:53;4.10;99.90
16846;DHT22;8539;53.188;8.696;2024-01-30T06:50:20;4.10;99.90
16846;DHT22;8539;53.188;8.696;2024-01-30T06:52:49;4.10;99.90
16846;DHT22;8539;53.188;8.696;2024-01-30T06:55:18;4.20;99.90
16846;DHT22;8539;53.188;8.696;2024-01-30T06:57:45;4.10;99.90
16846;DHT22;8539;53.188;8.696;2024-01-30T07:00:14;4.20;99.90
16846;DHT22;8539;53.188;8.696;2024-01-30T07:02:42;4.20;99.90
16846;DHT22;8539;53.188;8.696;2024-01-30T07:05:09;4.20;99.90
16846;DHT22;8539;53.188;8.696;2024-01-30T07:07:37;4.30;99.90
16846;DHT22;8539;53.188;8.696;2024-01-30T07:10:04;4.30;99.90
16846;DHT22;8539;53.188;8.696;2024-01-30T07:12:32;4.40;99.90
16846;DHT22;8539;53.188;8.696;2024-01-30T07:14:59;4.40;99.90
16846;DHT22;8539;53.188;8.696;2024-01-30T07:17:27;4.40;99.90
16846;DHT22;8539;53.188;8.696;2024-01-30T07:19:54;4.50;99.90
16846;DHT22;8539;53.188;8.696;2024-01-30T07:22:21;4.40;99.90
16846;DHT22;8539;53.188;8.696;2024-01-30T07:24:49;4.40;99.90
16846;DHT22;8539;53.188;8.696;2024-01-30T07:27:22;4.50;99.90
16846;DHT22;8539;53.188;8.696;2024-01-30T07:29:58;4.50;99.90
16846;DHT22;8539;53.188;8.696;2024-01-30T07:32:36;4.60;99.90
16846;DHT22;8539;53.188;8.696;2024-01-30T07:35:16;4.60;99.90
16846;DHT22;8539;53.188;8.696;2024-01-30T07:37:54;4.60;99.90
16846;DHT22;8539;53.188;8.696;2024-01-30T07:40:22;4.60;99.90
16846;DHT22;8539;53.188;8.696;2024-01-30T07:42:58;4.70;99.90
16846;DHT22;8539;53.188;8.696;2024-01-30T07:45:30;4.70;99.90
16846;DHT22;8539;53.188;8.696;2024-01-30T07:48:03;4.70;99.90
16846;DHT22;8539;53.188;8.696;2024-01-30T07:50:38;4.80;99.90
16846;DHT22;8539;53.188;8.696;2024-01-30T07:53:06;4.80;99.90
16846;DHT22;8539;53.188;8.696;2024-01-30T07:55:35;4.90;99.90
16846;DHT22;8539;53.188;8.696;2024-01-30T08:01:38;5.00;99.90
16846;DHT22;8539;53.188;8.696;2024-01-30T08:04:13;5.10;99.90
16846;DHT22;8539;53.188;8.696;2024-01-30T08:06:40;5.30;99.90
16846;DHT22;8539;53.188;8.696;2024-01-30T08:09:10;5.20;99.90
16846;DHT22;8539;53.188;8.696;2024-01-30T08:11:37;5.30;99.90
16846;DHT22;8539;53.188;8.696;2024-01-30T08:14:04;5.40;99.90
16846;DHT22;8539;53.188;8.696;2024-01-30T08:16:32;5.40;99.90
16846;DHT22;8539;53.188;8.696;2024-01-30T08:18:59;5.50;99.90
16846;DHT22;8539;53.188;8.696;2024-01-30T08:21:27;5.60;99.90
16846;DHT22;8539;53.188;8.696;2024-01-30T08:23:54;5.60;99.90
16846;DHT22;8539;53.188;8.696;2024-01-30T08:26:21;5.70;99.90
16846;DHT22;8539;53.188;8.696;2024-01-30T08:28:48;5.70;99.90
16846;DHT22;8539;53.188;8.696;2024-01-30T08:31:17;5.70;99.90
16846;DHT22;8539;53.188;8.696;2024-01-30T08:33:44;5.80;99.90
16846;DHT22;8539;53.188;8.696;2024-01-30T08:36:25;5.90;99.90
16846;DHT22;8539;53.188;8.696;2024-01-30T08:39:34;5.90;99.90
16846;DHT22;8539;53.188;8.696;2024-01-30T08:42:31;6.00;99.90
16846;DHT22;8539;53.188;8.696;2024-01-30T08:45:12;6.10;99.90
16846;DHT22;8539;53.188;8.696;2024-01-30T08:47:43;6.20;99.90
16846;DHT22;8539;53.188;8.696;2024-01-30T08:50:24;6.20;99.90
16846;DHT22;8539;53.188;8.696;2024-01-30T08:52:54;6.30;99.90
16846;DHT22;8539;53.188;8.696;2024-01-30T08:55:30;6.40;99.90
16846;DHT22;8539;53.188;8.696;2024-01-30T08:58:00;6.40;99.90
16846;DHT22;8539;53.188;8.696;2024-01-30T09:00:33;6.50;99.90
16846;DHT22;8539;53.188;8.696;2024-01-30T09:03:16;6.60;99.90
16846;DHT22;8539;53.188;8.696;2024-01-30T09:06:13;6.70;99.90
16846;DHT22;8539;53.188;8.696;2024-01-30T09:08:55;6.70;99.90
16846;DHT22;8539;53.188;8.696;2024-01-30T09:11:35;6.80;99.90
16846;DHT22;8539;53.188;8.696;2024-01-30T09:14:05;6.80;99.90
16846;DHT22;8539;53.188;8.696;2024-01-30T09:19:16;7.00;99.90
16846;DHT22;8539;53.188;8.696;2024-01-30T09:21:46;7.00;99.90
16846;DHT22;8539;53.188;8.696;2024-01-30T09:24:31;7.10;99.90
16846;DHT22;8539;53.188;8.696;2024-01-30T09:27:06;7.10;99.90
16846;DHT22;8539;53.188;8.696;2024-01-30T09:29:33;7.20;99.90
16846;DHT22;8539;53.188;8.696;2024-01-30T09:32:04;7.40;99.90
16846;DHT22;8539;53.188;8.696;2024-01-30T09:34:32;7.40;99.90
16846;DHT22;8539;53.188;8.696;2024-01-30T09:37:00;7.50;99.90
16846;DHT22;8539;53.188;8.696;2024-01-30T09:39:49;7.50;99.90
16846;DHT22;8539;53.188;8.696;2024-01-30T09:42:33;7.60;99.90
16846;DHT22;8539;53.188;8.696;2024-01-30T09:45:14;7.70;99.90
16846;DHT22;8539;53.188;8.696;2024-01-30T09:47:45;7.80;99.90
16846;DHT22;8539;53.188;8.696;2024-01-30T09:50:31;7.90;99.90
16846;DHT22;8539;53.188;8.696;2024-01-30T09:52:59;8.00;99.90
16846;DHT22;8539;53.188;8.696;2024-01-30T09:55:32;8.00;99.90
16846;DHT22;8539;53.188;8.696;2024-01-30T09:58:00;8.10;99.90
16846;DHT22;8539;53.188;8.696;2024-01-30T10:00:27;8.20;99.90
16846;DHT22;8539;53.188;8.696;2024-01-30T10:02:55;8.20;99.90
16846;DHT22;8539;53.188;8.696;2024-01-30T10:05:26;8.30;99.90
16846;DHT22;8539;53.188;8.696;2024-01-30T10:07:56;8.30;99.90
16846;DHT22;8539;53.188;8.696;2024-01-30T10:10:28;8.40;99.90
16846;DHT22;8539;53.188;8.696;2024-01-30T10:13:04;8.40;99.90
16846;DHT22;8539;53.188;8.696;2024-01-30T10:15:32;8.40;99.90
16846;DHT22;8539;53.188;8.696;2024-01-30T10:18:02;8.40;99.90
16846;DHT22;8539;53.188;8.696;2024-01-30T10:20:36;8.40;99.90
16846;DHT22;8539;53.188;8.696;2024-01-30T10:23:06;8.50;99.90
16846;DHT22;8539;53.188;8.696;2024-01-30T10:25:35;8.50;99.90
16846;DHT22;8539;53.188;8.696;2024-01-30T10:28:03;8.50;99.90
16846;DHT22;8539;53.188;8.696;2024-01-30T10:30:31;8.50;99.90
16846;DHT22;8539;53.188;8.696;2024-01-30T10:32:58;8.60;99.90
16846;DHT22;8539;53.188;8.696;2024-01-30T10:35:26;8.60;99.90
16846;DHT22;8539;53.188;8.696;2024-01-30T10:37:56;8.60;99.90
16846;DHT22;8539;53.188;8.696;2024-01-30T10:40:28;8.60;99.90
16846;DHT22;8539;53.188;8.696;2024-01-30T10:42:56;8.70;99.90
16846;DHT22;8539;53.188;8.696;2024-01-30T10:45:30;8.80;99.90
16846;DHT22;8539;53.188;8.696;2024-01-30T10:48:00;8.80;99.90
16846;DHT22;8539;53.188;8.696;2024-01-30T10:50:28;8.90;99.90
16846;DHT22;8539;53.188;8.696;2024-01-30T10:52:58;9.10;99.90
16846;DHT22;8539;53.188;8.696;2024-01-30T10:55:28;9.10;99.90
16846;DHT22;8539;53.188;8.696;2024-01-30T10:57:56;9.20;99.90
16846;DHT22;8539;53.188;8.696;2024-01-30T11:00:24;9.30;99.90
16846;DHT22;8539;53.188;8.696;2024-01-30T11:02:55;9.30;99.90
16846;DHT22;8539;53.188;8.696;2024-01-30T11:05:26;9.40;99.90
16846;DHT22;8539;53.188;8.696;2024-01-30T11:08:09;9.40;99.90
16846;DHT22;8539;53.188;8.696;2024-01-30T11:10:47;9.40;99.90
16846;DHT22;8539;53.188;8.696;2024-01-30T11:13:15;9.50;99.90
16846;DHT22;8539;53.188;8.696;2024-01-30T11:15:43;9.50;99.90
16846;DHT22;8539;53.188;8.696;2024-01-30T11:18:10;9.50;99.90
16846;DHT22;8539;53.188;8.696;2024-01-30T11:20:37;9.50;99.90
16846;DHT22;8539;53.188;8.696;2024-01-30T11:23:12;9.60;99.90
16846;DHT22;8539;53.188;8.696;2024-01-30T11:25:39;9.60;99.90
16846;DHT22;8539;53.188;8.696;2024-01-30T11:28:13;9.70;99.90
16846;DHT22;8539;53.188;8.696;2024-01-30T11:30:42;9.80;99.90
16846;DHT22;8539;53.188;8.696;2024-01-30T11:33:12;9.80;99.90
16846;DHT22;8539;53.188;8.696;2024-01-30T11:35:43;9.90;99.90
16846;DHT22;8539;53.188;8.696;2024-01-30T11:38:13;9.90;99.90
16846;DHT22;8539;53.188;8.696;2024-01-30T11:40:41;10.00;99.90
16846;DHT22;8539;53.188;8.696;2024-01-30T11:43:09;10.00;99.90
16846;DHT22;8539;53.188;8.696;2024-01-30T11:45:37;10.10;99.90
16846;DHT22;8539;53.188;8.696;2024-01-30T11:48:05;10.10;99.90
16846;DHT22;8539;53.188;8.696;2024-01-30T11:50:34;10.10;99.90
16846;DHT22;8539;53.188;8.696;2024-01-30T11:53:04;10.10;99.90
16846;DHT22;8539;53.188;8.696;2024-01-30T11:55:59;10.10;99.90
16846;DHT22;8539;53.188;8.696;2024-01-30T11:58:44;10.00;99.90
16846;DHT22;8539;53.188;8.696;2024-01-30T12:01:21;10.10;99.90
16846;DHT22;8539;53.188;8.696;2024-01-30T12:03:56;10.10;99.90
16846;DHT22;8539;53.188;8.696;2024-01-30T12:09:27;10.10;99.90
16846;DHT22;8539;53.188;8.696;2024-01-30T12:11:54;10.20;99.90
16846;DHT22;8539;53.188;8.696;2024-01-30T12:14:22;10.30;99.90
16846;DHT22;8539;53.188;8.696;2024-01-30T12:16:52;10.30;99.90
16846;DHT22;8539;53.188;8.696;2024-01-30T12:19:23;10.40;99.90
16846;DHT22;8539;53.188;8.696;2024-01-30T12:21:57;10.40;99.90
16846;DHT22;8539;53.188;8.696;2024-01-30T12:24:27;10.40;99.90
16846;DHT22;8539;53.188;8.696;2024-01-30T12:27:00;10.40;99.90
16846;DHT22;8539;53.188;8.696;2024-01-30T12:29:33;10.40;99.90
16846;DHT22;8539;53.188;8.696;2024-01-30T12:32:04;10.50;99.90
16846;DHT22;8539;53.188;8.696;2024-01-30T12:34:34;10.50;99.90
16846;DHT22;8539;53.188;8.696;2024-01-30T12:37:15;10.50;99.90
16846;DHT22;8539;53.188;8.696;2024-01-30T12:39:54;10.50;99.90
16846;DHT22;8539;53.188;8.696;2024-01-30T12:42:21;10.60;99.90
16846;DHT22;8539;53.188;8.696;2024-01-30T12:44:49;10.60;99.90
16846;DHT22;8539;53.188;8.696;2024-01-30T12:47:21;10.60;99.90
16846;DHT22;8539;53.188;8.696;2024-01-30T12:49:48;10.60;99.90
16846;DHT22;8539;53.188;8.696;2024-01-30T12:52:16;10.60;99.90
16846;DHT22;8539;53.188;8.696;2024-01-30T12:54:43;10.70;99.90
16846;DHT22;8539;53.188;8.696;2024-01-30T12:57:11;10.80;99.90
16846;DHT22;8539;53.188;8.696;2024-01-30T12:59:38;10.80;99.90
16846;DHT22;8539;53.188;8.696;2024-01-30T13:02:07;10.80;99.90
16846;DHT22;8539;53.188;8.696;2024-01-30T13:04:34;10.80;99.90
16846;DHT22;8539;53.188;8.696;2024-01-30T13:07:02;10.80;99.90
16846;DHT22;8539;53.188;8.696;2024-01-30T13:09:30;10.80;99.90
16846;DHT22;8539;53.188;8.696;2024-01-30T13:11:59;10.80;99.90
16846;DHT22;8539;53.188;8.696;2024-01-30T13:14:29;10.80;99.90
16846;DHT22;8539;53.188;8.696;2024-01-30T13:17:14;10.80;99.90
16846;DHT22;8539;53.188;8.696;2024-01-30T13:19:51;10.80;99.90
16846;DHT22;8539;53.188;8.696;2024-01-30T13:22:18;10.80;99.90
16846;DHT22;8539;53.188;8.696;2024-01-30T13:24:48;10.80;99.90
16846;DHT22;8539;53.188;8.696;2024-01-30T13:27:15;10.80;99.90
16846;DHT22;8539;53.188;8.696;2024-01-30T13:29:42;10.80;99.90
16846;DHT22;8539;53.188;8.696;2024-01-30T13:32:09;10.80;99.90
16846;DHT22;8539;53.188;8.696;2024-01-30T13:34:40;10.80;99.90
16846;DHT22;8539;53.188;8.696;2024-01-30T13:37:08;10.80;99.90
16846;DHT22;8539;53.188;8.696;2024-01-30T13:39:38;10.80;99.90
16846;DHT22;8539;53.188;8.696;2024-01-30T13:42:06;10.80;99.90
16846;DHT22;8539;53.188;8.696;2024-01-30T13:44:35;10.80;99.90
16846;DHT22;8539;53.188;8.696;2024-01-30T13:47:05;10.80;99.90
16846;DHT22;8539;53.188;8.696;2024-01-30T13:49:32;10.80;99.90
16846;DHT22;8539;53.188;8.696;2024-01-30T13:52:00;10.80;99.90
16846;DHT22;8539;53.188;8.696;2024-01-30T13:54:27;10.80;99.90
16846;DHT22;8539;53.188;8.696;2024-01-30T13:56:54;10.80;99.90
16846;DHT22;8539;53.188;8.696;2024-01-30T13:59:25;10.80;99.90
16846;DHT22;8539;53.188;8.696;2024-01-30T14:01:52;10.80;99.90
16846;DHT22;8539;53.188;8.696;2024-01-30T14:04:22;10.80;99.90
16846;DHT22;8539;53.188;8.696;2024-01-30T14:06:52;10.80;99.90
16846;DHT22;8539;53.188;8.696;2024-01-30T14:09:30;10.80;99.90
16846;DHT22;8539;53.188;8.696;2024-01-30T14:11:59;10.80;99.90
16846;DHT22;8539;53.188;8.696;2024-01-30T14:14:26;10.80;99.90
16846;DHT22;8539;53.188;8.696;2024-01-30T14:16:55;10.80;99.90
16846;DHT22;8539;53.188;8.696;2024-01-30T14:19:25;10.80;99.90
16846;DHT22;8539;53.188;8.696;2024-01-30T14:21:52;10.80;99.90
16846;DHT22;8539;53.188;8.696;2024-01-30T14:24:19;10.80;99.90
16846;DHT22;8539;53.188;8.696;2024-01-30T14:26:46;10.80;99.90
16846;DHT22;8539;53.188;8.696;2024-01-30T14:29:14;10.80;99.90
16846;DHT22;8539;53.188;8.696;2024-01-30T14:31:41;10.80;99.90
16846;DHT22;8539;53.188;8.696;2024-01-30T14:34:08;10.90;99.90
16846;DHT22;8539;53.188;8.696;2024-01-30T14:36:38;11.00;99.90
16846;DHT22;8539;53.188;8.696;2024-01-30T14:39:05;11.00;99.90
16846;DHT22;8539;53.188;8.696;2024-01-30T14:41:42;11.10;99.90
16846;DHT22;8539;53.188;8.696;2024-01-30T14:44:09;11.30;99.90
16846;DHT22;8539;53.188;8.696;2024-01-30T14:46:44;11.40;99.90
16846;DHT22;8539;53.188;8.696;2024-01-30T14:49:14;11.30;99.90
16846;DHT22;8539;53.188;8.696;2024-01-30T14:51:47;11.20;99.90
16846;DHT22;8539;53.188;8.696;2024-01-30T14:54:29;11.10;99.90
16846;DHT22;8539;53.188;8.696;2024-01-30T14:57:07;11.00;99.90
16846;DHT22;8539;53.188;8.696;2024-01-30T14:59:46;10.90;99.90
16846;DHT22;8539;53.188;8.696;2024-01-30T15:02:16;10.90;99.90
16846;DHT22;8539;53.188;8.696;2024-01-30T15:04:44;10.80;99.90
16846;DHT22;8539;53.188;8.696;2024-01-30T15:07:11;10.80;99.90
16846;DHT22;8539;53.188;8.696;2024-01-30T15:09:45;10.70;99.90
16846;DHT22;8539;53.188;8.696;2024-01-30T15:12:13;10.70;99.90
16846;DHT22;8539;53.188;8.696;2024-01-30T15:14:41;10.70;99.90
16846;DHT22;8539;53.188;8.696;2024-01-30T15:17:18;10.60;99.90
16846;DHT22;8539;53.188;8.696;2024-01-30T15:19:46;10.70;99.90
16846;DHT22;8539;53.188;8.696;2024-01-30T15:22:16;10.70;99.90
16846;DHT22;8539;53.188;8.696;2024-01-30T15:24:43;10.70;99.90
16846;DHT22;8539;53.188;8.696;2024-01-30T15:27:10;10.60;99.90
16846;DHT22;8539;53.188;8.696;2024-01-30T15:29:38;10.70;99.90
16846;DHT22;8539;53.188;8.696;2024-01-30T15:32:07;10.60;99.90
16846;DHT22;8539;53.188;8.696;2024-01-30T15:34:35;10.60;99.90
16846;DHT22;8539;53.188;8.696;2024-01-30T15:37:05;10.60;99.90
16846;DHT22;8539;53.188;8.696;2024-01-30T15:39:32;10.60;99.90
16846;DHT22;8539;53.188;8.696;2024-01-30T15:42:00;10.60;99.90
16846;DHT22;8539;53.188;8.696;2024-01-30T15:44:27;10.60;99.90
16846;DHT22;8539;53.188;8.696;2024-01-30T15:46:54;10.60;99.90
16846;DHT22;8539;53.188;8.696;2024-01-30T15:49:21;10.50;99.90
16846;DHT22;8539;53.188;8.696;2024-01-30T15:51:48;10.50;99.90
16846;DHT22;8539;53.188;8.696;2024-01-30T15:54:16;10.50;99.90
16846;DHT22;8539;53.188;8.696;2024-01-30T15:56:44;10.50;99.90
16846;DHT22;8539;53.188;8.696;2024-01-30T15:59:11;10.50;99.90
16846;DHT22;8539;53.188;8.696;2024-01-30T16:01:39;10.50;99.90
16846;DHT22;8539;53.188;8.696;2024-01-30T16:04:07;10.50;99.90
16846;DHT22;8539;53.188;8.696;2024-01-30T16:06:34;10.50;99.90
16846;DHT22;8539;53.188;8.696;2024-01-30T16:09:02;10.50;99.90
16846;DHT22;8539;53.188;8.696;2024-01-30T16:11:30;10.50;99.90
16846;DHT22;8539;53.188;8.696;2024-01-30T16:13:59;10.50;99.90
16846;DHT22;8539;53.188;8.696;2024-01-30T16:16:26;10.50;99.90
16846;DHT22;8539;53.188;8.696;2024-01-30T16:18:53;10.40;99.90
16846;DHT22;8539;53.188;8.696;2024-01-30T16:21:21;10.30;99.90
16846;DHT22;8539;53.188;8.696;2024-01-30T16:23:48;10.30;99.90
16846;DHT22;8539;53.188;8.696;2024-01-30T16:26:17;10.20;99.90
16846;DHT22;8539;53.188;8.696;2024-01-30T16:28:44;10.10;99.90
16846;DHT22;8539;53.188;8.696;2024-01-30T16:31:11;10.10;99.90
16846;DHT22;8539;53.188;8.696;2024-01-30T16:33:38;10.10;99.90
16846;DHT22;8539;53.188;8.696;2024-01-30T16:36:06;10.00;99.90